createdAt,value
2022-10-10T00:01:13.525Z,2.05
2022-10-10T00:03:40.752Z,2.28
2022-10-10T00:06:08.588Z,2.00
2022-10-10T00:08:35.739Z,2.15
2022-10-10T00:11:02.779Z,2.53
2022-10-10T00:13:29.425Z,2.50
2022-10-10T00:15:56.097Z,2.60
2022-10-10T00:18:22.746Z,2.30
2022-10-10T00:20:52.451Z,2.17
2022-10-10T00:23:19.932Z,2.30
2022-10-10T00:25:50.414Z,1.60
2022-10-10T00:28:17.921Z,1.70
2022-10-10T00:30:44.989Z,2.47
2022-10-10T00:33:11.923Z,2.00
2022-10-10T00:35:42.439Z,1.98
2022-10-10T00:38:10.281Z,2.05
2022-10-10T00:40:45.919Z,2.30
2022-10-10T00:43:14.322Z,1.98
2022-10-10T00:45:43.366Z,2.60
2022-10-10T00:48:11.938Z,2.75
2022-10-10T00:50:42.903Z,2.17
2022-10-10T00:53:13.175Z,2.47
2022-10-10T00:55:39.893Z,1.73
2022-10-10T00:58:09.005Z,2.05
2022-10-10T01:00:35.745Z,1.95
2022-10-10T01:03:02.377Z,2.00
2022-10-10T01:05:29.518Z,2.05
2022-10-10T01:07:56.893Z,2.05
2022-10-10T01:10:24.806Z,1.90
2022-10-10T01:12:56.887Z,2.20
2022-10-10T01:15:30.558Z,2.13
2022-10-10T01:18:07.195Z,2.25
2022-10-10T01:20:53.375Z,2.00
2022-10-10T01:23:47.353Z,2.08
2022-10-10T01:26:44.534Z,2.08
2022-10-10T01:29:30.640Z,1.98
2022-10-10T01:32:06.702Z,2.10
2022-10-10T01:34:49.636Z,2.05
2022-10-10T01:37:20.754Z,1.90
2022-10-10T01:40:14.401Z,2.10
2022-10-10T01:42:48.047Z,2.00
2022-10-10T01:45:14.823Z,1.90
2022-10-10T01:47:41.840Z,2.10
2022-10-10T01:50:14.459Z,2.00
2022-10-10T01:52:42.070Z,2.22
2022-10-10T01:55:09.743Z,1.98
2022-10-10T01:57:56.352Z,2.15
2022-10-10T02:00:23.076Z,2.00
2022-10-10T02:03:16.885Z,1.80
2022-10-10T02:05:58.815Z,2.08
2022-10-10T02:08:33.499Z,2.03
2022-10-10T02:11:03.171Z,2.00
2022-10-10T02:13:39.655Z,1.98
2022-10-10T02:16:13.909Z,2.45
2022-10-10T02:18:45.513Z,2.00
2022-10-10T02:21:14.927Z,1.83
2022-10-10T02:23:43.607Z,1.55
2022-10-10T02:26:13.662Z,1.95
2022-10-10T02:28:48.069Z,2.10
2022-10-10T02:31:21.531Z,1.83
2022-10-10T02:33:53.280Z,1.67
2022-10-10T02:36:22.346Z,2.05
2022-10-10T02:38:50.758Z,2.83
2022-10-10T02:41:20.057Z,2.20
2022-10-10T02:43:47.849Z,2.13
2022-10-10T02:46:14.871Z,2.40
2022-10-10T02:48:42.583Z,1.92
2022-10-10T02:51:10.759Z,2.33
2022-10-10T02:53:38.089Z,2.00
2022-10-10T02:56:05.106Z,2.08
2022-10-10T02:58:32.079Z,1.83
2022-10-10T03:00:58.958Z,2.10
2022-10-10T03:03:25.883Z,2.55
2022-10-10T03:05:52.811Z,2.25
2022-10-10T03:08:19.412Z,2.63
2022-10-10T03:11:01.642Z,2.40
2022-10-10T03:13:28.458Z,2.53
2022-10-10T03:15:55.126Z,2.55
2022-10-10T03:18:21.869Z,2.28
2022-10-10T03:20:54.028Z,2.63
2022-10-10T03:23:20.995Z,2.17
2022-10-10T03:25:47.961Z,2.90
2022-10-10T03:28:14.935Z,2.60
2022-10-10T03:30:42.132Z,2.05
2022-10-10T03:33:09.495Z,2.50
2022-10-10T03:35:36.415Z,2.60
2022-10-10T03:38:04.043Z,2.53
2022-10-10T03:40:31.121Z,2.60
2022-10-10T03:42:57.861Z,3.00
2022-10-10T03:45:24.637Z,2.38
2022-10-10T03:47:51.691Z,2.33
2022-10-10T03:50:18.678Z,2.70
2022-10-10T03:52:45.481Z,3.42
2022-10-10T03:55:12.222Z,3.25
2022-10-10T03:57:38.876Z,3.30
2022-10-10T04:00:06.007Z,3.47
2022-10-10T04:02:32.980Z,4.57
2022-10-10T04:04:59.661Z,3.90
2022-10-10T04:07:26.325Z,3.45
2022-10-10T04:09:52.948Z,3.63
2022-10-10T04:12:19.608Z,7.45
2022-10-10T04:14:46.270Z,6.28
2022-10-10T04:17:13.049Z,5.43
2022-10-10T04:19:42.818Z,8.55
2022-10-10T04:22:11.272Z,7.03
2022-10-10T04:24:38.423Z,4.43
2022-10-10T04:27:08.590Z,4.35
2022-10-10T04:29:35.236Z,4.68
2022-10-10T04:32:02.010Z,4.38
2022-10-10T04:34:28.716Z,4.10
2022-10-10T04:36:55.454Z,4.63
2022-10-10T04:39:22.283Z,3.80
2022-10-10T04:41:50.123Z,4.05
2022-10-10T04:44:17.535Z,4.30
2022-10-10T04:46:44.286Z,3.75
2022-10-10T04:49:11.025Z,3.75
2022-10-10T04:51:37.805Z,4.28
2022-10-10T04:54:04.622Z,3.95
2022-10-10T04:56:31.409Z,3.42
2022-10-10T04:58:58.057Z,4.05
2022-10-10T05:01:24.773Z,4.40
2022-10-10T05:03:51.371Z,3.40
2022-10-10T05:06:20.093Z,4.07
2022-10-10T05:08:46.755Z,3.88
2022-10-10T05:11:13.890Z,4.03
2022-10-10T05:13:40.628Z,4.32
2022-10-10T05:16:07.309Z,5.15
2022-10-10T05:18:36.800Z,3.90
2022-10-10T05:21:04.121Z,3.50
2022-10-10T05:23:30.841Z,4.57
2022-10-10T05:25:57.435Z,4.10
2022-10-10T05:28:24.251Z,4.05
2022-10-10T05:30:52.201Z,4.55
2022-10-10T05:33:18.870Z,3.80
2022-10-10T05:35:45.471Z,3.80
2022-10-10T05:38:12.166Z,3.85
2022-10-10T05:40:40.679Z,4.35
2022-10-10T05:43:08.035Z,3.47
2022-10-10T05:45:34.683Z,3.55
2022-10-10T05:48:01.485Z,4.20
2022-10-10T05:50:46.784Z,3.83
2022-10-10T05:53:13.810Z,4.00
2022-10-10T05:55:40.745Z,3.78
2022-10-10T05:58:07.775Z,4.30
2022-10-10T06:00:35.164Z,3.53
2022-10-10T06:03:02.090Z,4.63
2022-10-10T06:05:29.180Z,4.20
2022-10-10T06:08:12.279Z,4.75
2022-10-10T06:10:42.462Z,3.85
2022-10-10T06:13:10.933Z,3.97
2022-10-10T06:15:37.897Z,4.63
2022-10-10T06:18:05.170Z,4.60
2022-10-10T06:20:35.545Z,4.90
2022-10-10T06:23:02.540Z,5.25
2022-10-10T06:25:39.913Z,5.63
2022-10-10T06:28:07.982Z,5.68
2022-10-10T06:30:35.215Z,5.40
2022-10-10T06:33:02.091Z,5.90
2022-10-10T06:35:28.939Z,5.07
2022-10-10T06:37:55.608Z,6.63
2022-10-10T06:40:22.282Z,6.55
2022-10-10T06:42:49.197Z,5.80
2022-10-10T06:45:16.255Z,6.00
2022-10-10T06:47:42.992Z,5.40
2022-10-10T06:50:09.798Z,6.40
2022-10-10T06:52:36.461Z,4.95
2022-10-10T06:55:03.248Z,4.57
2022-10-10T06:57:29.919Z,4.50
2022-10-10T06:59:56.616Z,4.47
2022-10-10T07:02:23.304Z,4.38
2022-10-10T07:04:49.965Z,4.50
2022-10-10T07:07:16.797Z,4.28
2022-10-10T07:09:43.597Z,3.92
2022-10-10T07:12:10.367Z,4.10
2022-10-10T07:14:37.193Z,4.35
2022-10-10T07:17:04.330Z,3.85
2022-10-10T07:19:30.987Z,3.60
2022-10-10T07:21:57.642Z,4.03
2022-10-10T07:24:24.298Z,3.78
2022-10-10T07:27:02.317Z,4.15
2022-10-10T07:29:30.590Z,3.75
2022-10-10T07:31:57.684Z,4.35
2022-10-10T07:34:24.710Z,3.78
2022-10-10T07:36:51.479Z,4.10
2022-10-10T07:39:23.448Z,4.10
2022-10-10T07:41:51.950Z,4.10
2022-10-10T07:44:19.798Z,4.05
2022-10-10T07:46:47.034Z,4.35
2022-10-10T07:49:13.711Z,4.32
2022-10-10T07:51:40.566Z,4.00
2022-10-10T07:54:07.195Z,4.20
2022-10-10T07:56:33.901Z,4.28
2022-10-10T07:59:01.043Z,4.22
2022-10-10T08:01:27.975Z,4.40
2022-10-10T08:03:57.102Z,4.60
2022-10-10T08:06:24.799Z,4.53
2022-10-10T08:08:52.309Z,4.45
2022-10-10T08:11:21.493Z,4.65
2022-10-10T08:13:49.261Z,5.05
2022-10-10T08:16:16.181Z,4.57
2022-10-10T08:18:42.867Z,4.93
2022-10-10T08:21:12.931Z,5.47
2022-10-10T08:23:40.268Z,5.72
2022-10-10T08:26:09.987Z,5.18
2022-10-10T08:28:40.466Z,4.53
2022-10-10T08:31:09.876Z,4.85
2022-10-10T08:33:36.908Z,4.53
2022-10-10T08:36:09.893Z,4.60
2022-10-10T08:38:40.945Z,5.30
2022-10-10T08:41:14.133Z,4.18
2022-10-10T08:43:48.254Z,4.60
2022-10-10T08:46:21.820Z,4.88
2022-10-10T08:48:50.696Z,4.32
2022-10-10T08:51:28.953Z,4.68
2022-10-10T08:53:59.056Z,4.45
2022-10-10T08:56:30.839Z,4.63
2022-10-10T08:59:06.316Z,4.28
2022-10-10T09:01:35.981Z,4.25
2022-10-10T09:04:22.830Z,4.60
2022-10-10T09:06:51.475Z,4.57
2022-10-10T09:09:19.188Z,4.00
2022-10-10T09:12:01.307Z,4.40
2022-10-10T09:14:50.684Z,4.80
2022-10-10T09:20:32.492Z,4.07
2022-10-10T09:23:28.185Z,4.25
2022-10-10T09:26:01.994Z,3.88
2022-10-10T09:28:47.764Z,4.45
2022-10-10T09:31:23.050Z,5.00
2022-10-10T09:33:59.913Z,4.13
2022-10-10T09:36:34.040Z,4.18
2022-10-10T09:39:03.742Z,4.30
2022-10-10T09:41:38.869Z,4.03
2022-10-10T09:44:10.367Z,3.70
2022-10-10T09:46:38.311Z,4.22
2022-10-10T09:49:05.729Z,4.20
2022-10-10T09:51:33.107Z,4.80
2022-10-10T09:54:00.216Z,4.10
2022-10-10T09:56:31.967Z,4.03
2022-10-10T09:58:58.739Z,3.42
2022-10-10T10:01:31.124Z,4.35
2022-10-10T10:04:30.437Z,3.95
2022-10-10T10:07:08.884Z,3.80
2022-10-10T10:09:35.618Z,4.40
2022-10-10T10:12:05.384Z,3.58
2022-10-10T10:14:37.954Z,3.65
2022-10-10T10:17:11.039Z,3.30
2022-10-10T10:19:40.688Z,3.78
2022-10-10T10:22:30.516Z,3.58
2022-10-10T10:24:57.788Z,3.45
2022-10-10T10:27:27.417Z,4.22
2022-10-10T10:29:56.828Z,3.92
2022-10-10T10:32:38.842Z,3.95
2022-10-10T10:35:17.630Z,3.55
2022-10-10T10:38:13.787Z,3.40
2022-10-10T10:40:57.622Z,3.67
2022-10-10T10:43:50.365Z,3.42
2022-10-10T10:46:31.540Z,3.17
2022-10-10T10:49:14.688Z,3.67
2022-10-10T10:52:10.755Z,3.05
2022-10-10T10:54:57.244Z,3.67
2022-10-10T10:57:37.426Z,3.50
2022-10-10T11:00:22.001Z,3.20
2022-10-10T11:03:14.801Z,2.92
2022-10-10T11:06:13.611Z,3.50
2022-10-10T11:09:01.342Z,3.40
2022-10-10T11:11:46.893Z,3.40
2022-10-10T11:14:38.819Z,3.75
2022-10-10T11:17:14.994Z,2.80
2022-10-10T11:22:18.409Z,3.63
2022-10-10T11:25:02.605Z,3.38
2022-10-10T11:27:34.127Z,3.45
2022-10-10T11:30:23.208Z,3.25
2022-10-10T11:33:05.219Z,3.30
2022-10-10T11:35:33.878Z,3.25
2022-10-10T11:38:06.709Z,3.25
2022-10-10T11:40:42.705Z,3.05
2022-10-10T11:43:18.588Z,3.80
2022-10-10T11:45:52.262Z,3.45
2022-10-10T11:48:25.682Z,3.08
2022-10-10T11:50:59.719Z,3.17
2022-10-10T11:53:34.223Z,3.30
2022-10-10T11:56:21.679Z,2.95
2022-10-10T11:58:54.796Z,3.05
2022-10-10T12:01:33.747Z,3.22
2022-10-10T12:04:00.489Z,3.08
2022-10-10T12:06:48.760Z,2.92
2022-10-10T12:09:24.919Z,3.25
2022-10-10T12:14:26.473Z,2.88
2022-10-10T12:16:53.547Z,2.92
2022-10-10T12:19:22.193Z,2.95
2022-10-10T12:22:06.192Z,3.83
2022-10-10T12:24:39.697Z,2.85
2022-10-10T12:27:25.248Z,3.10
2022-10-10T12:29:55.099Z,2.75
2022-10-10T12:32:22.694Z,3.08
2022-10-10T12:34:49.412Z,3.10
2022-10-10T12:37:27.090Z,2.60
2022-10-10T12:40:20.682Z,2.58
2022-10-10T12:42:50.499Z,3.30
2022-10-10T12:45:32.447Z,2.70
2022-10-10T12:48:06.320Z,2.55
2022-10-10T12:50:38.218Z,2.80
2022-10-10T12:53:15.956Z,2.92
2022-10-10T12:55:45.750Z,2.88
2022-10-10T12:58:27.473Z,2.63
2022-10-10T13:08:05.204Z,2.47
2022-10-10T13:10:33.177Z,2.95
2022-10-10T13:13:01.366Z,2.67
2022-10-10T13:15:29.405Z,2.78
2022-10-10T13:17:56.248Z,2.65
2022-10-10T13:20:26.948Z,2.38
2022-10-10T13:22:54.051Z,2.50
2022-10-10T13:25:21.614Z,2.63
2022-10-10T13:27:48.335Z,2.20
2022-10-10T13:30:29.069Z,2.80
2022-10-10T13:32:56.967Z,2.67
2022-10-10T13:35:27.194Z,2.40
2022-10-10T13:37:58.367Z,2.92
2022-10-10T13:40:26.981Z,3.08
2022-10-10T13:42:55.248Z,2.60
2022-10-10T13:45:29.310Z,2.30
2022-10-10T13:48:10.340Z,2.92
2022-10-10T13:50:57.047Z,3.20
2022-10-10T13:53:27.543Z,2.88
2022-10-10T13:56:04.931Z,2.78
2022-10-10T13:58:38.723Z,2.70
2022-10-10T14:01:05.744Z,3.05
2022-10-10T14:03:34.576Z,2.80
2022-10-10T14:19:55.129Z,2.67
2022-10-10T14:23:19.071Z,2.60
2022-10-10T14:35:05.062Z,2.78
2022-10-10T15:07:54.648Z,2.60
2022-10-10T15:18:39.607Z,2.67
2022-10-10T15:23:33.978Z,3.58
2022-10-10T15:26:00.748Z,3.03
2022-10-10T15:28:27.430Z,3.70
2022-10-10T15:30:54.648Z,3.25
2022-10-10T15:33:21.444Z,2.70
2022-10-10T15:36:12.188Z,3.08
2022-10-10T15:38:40.446Z,2.95
2022-10-10T15:41:09.768Z,3.00
2022-10-10T15:43:54.576Z,3.40
2022-10-10T15:46:23.826Z,3.80
2022-10-10T15:48:50.558Z,3.83
2022-10-10T15:51:17.464Z,3.70
2022-10-10T15:53:44.415Z,3.30
2022-10-10T15:56:15.586Z,4.00
2022-10-10T15:58:42.984Z,4.25
2022-10-10T16:01:19.967Z,3.50
2022-10-10T16:03:49.402Z,3.90
2022-10-10T16:06:18.365Z,5.07
2022-10-10T16:08:52.371Z,4.15
2022-10-10T16:11:24.559Z,3.78
2022-10-10T16:13:53.574Z,3.92
2022-10-10T16:16:29.630Z,3.60
2022-10-10T16:18:56.363Z,3.53
2022-10-10T16:21:24.770Z,3.85
2022-10-10T16:23:57.032Z,3.92
2022-10-10T16:26:29.179Z,3.65
2022-10-10T16:28:56.733Z,3.70
2022-10-10T16:31:27.000Z,4.47
2022-10-10T16:33:55.512Z,4.38
2022-10-10T16:36:25.051Z,3.78
2022-10-10T16:38:54.011Z,4.50
2022-10-10T16:41:42.871Z,4.10
2022-10-10T16:44:07.738Z,3.00
2022-10-10T16:46:34.856Z,3.72
2022-10-10T16:49:01.711Z,4.38
2022-10-10T16:51:32.590Z,4.00
2022-10-10T16:54:01.649Z,4.05
2022-10-10T16:56:29.812Z,3.38
2022-10-10T16:58:59.270Z,3.90
2022-10-10T17:01:26.102Z,3.53
2022-10-10T17:03:53.097Z,3.92
2022-10-10T17:06:23.356Z,5.30
2022-10-10T17:08:52.653Z,3.63
2022-10-10T17:11:21.398Z,3.70
2022-10-10T17:13:49.492Z,3.80
2022-10-10T17:16:59.829Z,4.07
2022-10-10T17:19:08.971Z,3.78
2022-10-10T17:21:36.029Z,3.70
2022-10-10T17:24:02.704Z,5.88
2022-10-10T17:26:29.437Z,4.28
2022-10-10T17:29:00.267Z,4.20
2022-10-10T17:31:27.376Z,4.60
2022-10-10T17:33:56.230Z,3.53
2022-10-10T17:36:25.194Z,4.50
2022-10-10T17:38:52.784Z,4.45
2022-10-10T17:41:20.668Z,3.83
2022-10-10T17:43:47.470Z,3.67
2022-10-10T17:46:35.291Z,3.55
2022-10-10T17:49:05.933Z,4.40
2022-10-10T17:51:32.789Z,3.42
2022-10-10T17:54:00.695Z,4.03
2022-10-10T17:56:27.647Z,3.72
2022-10-10T17:58:54.342Z,3.80
2022-10-10T18:01:21.378Z,3.72
2022-10-10T18:03:48.554Z,4.13
2022-10-10T18:06:18.850Z,3.67
2022-10-10T18:08:48.008Z,3.72
2022-10-10T18:11:17.290Z,3.85
2022-10-10T18:13:44.509Z,3.90
2022-10-10T18:16:14.267Z,3.75
2022-10-10T18:18:48.246Z,3.97
2022-10-10T18:23:44.062Z,3.92
2022-10-10T18:26:15.332Z,4.35
2022-10-10T18:28:43.003Z,3.85
2022-10-10T18:31:14.038Z,4.25
2022-10-10T18:33:42.197Z,4.03
2022-10-10T18:36:09.884Z,4.20
2022-10-10T18:38:37.806Z,3.90
2022-10-10T18:41:08.911Z,4.10
2022-10-10T18:43:36.377Z,4.55
2022-10-10T18:46:06.060Z,4.05
2022-10-10T18:48:32.852Z,4.13
2022-10-10T18:51:01.982Z,4.68
2022-10-10T18:53:29.150Z,4.72
2022-10-10T18:55:57.690Z,4.30
2022-10-10T18:58:24.342Z,4.47
2022-10-10T19:00:51.051Z,4.82
2022-10-10T19:03:17.795Z,3.65
2022-10-10T19:05:44.452Z,4.15
2022-10-10T19:08:11.186Z,4.47
2022-10-10T19:10:44.579Z,4.93
2022-10-10T19:13:11.678Z,4.15
2022-10-10T19:15:38.709Z,4.18
2022-10-10T19:18:05.786Z,5.20
2022-10-10T19:20:33.036Z,4.30
2022-10-10T19:23:00.387Z,4.90
2022-10-10T19:25:29.980Z,4.45
2022-10-10T19:27:57.150Z,4.40
2022-10-10T19:30:23.932Z,4.50
2022-10-10T19:32:50.668Z,5.05
2022-10-10T19:35:17.352Z,4.70
2022-10-10T19:37:43.992Z,4.40
2022-10-10T19:40:11.050Z,4.53
2022-10-10T19:42:38.445Z,4.90
2022-10-10T19:45:05.375Z,4.32
2022-10-10T19:47:32.068Z,4.65
2022-10-10T19:49:58.728Z,4.95
2022-10-10T19:52:25.403Z,4.43
2022-10-10T19:54:53.241Z,4.93
2022-10-10T19:57:19.964Z,5.43
2022-10-10T19:59:46.646Z,6.30
2022-10-10T20:02:13.317Z,5.18
2022-10-10T20:04:39.960Z,5.40
2022-10-10T20:07:06.740Z,6.55
2022-10-10T20:09:33.684Z,6.55
2022-10-10T20:12:00.381Z,6.00
2022-10-10T20:14:27.007Z,5.80
2022-10-10T20:16:54.970Z,6.50
2022-10-10T20:19:21.623Z,6.60
2022-10-10T20:21:48.307Z,6.43
2022-10-10T20:24:15.168Z,6.60
2022-10-10T20:26:41.784Z,6.05
2022-10-10T20:29:08.727Z,5.82
2022-10-10T20:31:39.754Z,5.22
2022-10-10T20:34:07.150Z,5.55
2022-10-10T20:36:34.718Z,6.35
2022-10-10T20:39:04.981Z,6.47
2022-10-10T20:41:33.277Z,6.03
2022-10-10T20:44:03.298Z,5.57
2022-10-10T20:46:37.215Z,5.88
2022-10-10T20:49:06.125Z,6.20
2022-10-10T20:51:32.799Z,7.07
2022-10-10T20:54:02.771Z,6.80
2022-10-10T20:56:30.646Z,6.95
2022-10-10T20:58:57.460Z,7.00
2022-10-10T21:01:27.116Z,6.47
2022-10-10T21:03:54.048Z,6.18
2022-10-10T21:06:24.206Z,5.63
2022-10-10T21:08:51.691Z,5.63
2022-10-10T21:11:19.144Z,6.50
2022-10-10T21:13:54.072Z,6.38
2022-10-10T21:16:21.241Z,5.72
2022-10-10T21:18:57.600Z,6.65
2022-10-10T21:21:26.140Z,5.93
2022-10-10T21:23:56.182Z,6.50
2022-10-10T21:26:24.619Z,6.97
2022-10-10T21:28:52.857Z,6.50
2022-10-10T21:31:23.326Z,7.05
2022-10-10T21:33:50.001Z,7.63
2022-10-10T21:36:18.519Z,6.95
2022-10-10T21:38:45.631Z,6.70
2022-10-10T21:41:16.329Z,6.85
2022-10-10T21:43:44.692Z,7.25
2022-10-10T21:46:14.177Z,7.10
2022-10-10T21:48:41.175Z,7.28
2022-10-10T21:51:08.392Z,6.45
2022-10-10T21:53:35.076Z,6.20
2022-10-10T21:56:07.669Z,6.32
2022-10-10T21:58:37.583Z,6.15
2022-10-10T22:01:18.005Z,7.15
2022-10-10T22:03:47.183Z,5.80
2022-10-10T22:06:17.121Z,6.72
2022-10-10T22:08:45.651Z,6.32
2022-10-10T22:11:16.356Z,6.03
2022-10-10T22:13:43.202Z,6.38
2022-10-10T22:16:11.003Z,6.43
2022-10-10T22:18:38.499Z,6.20
2022-10-10T22:21:07.451Z,5.55
2022-10-10T22:23:34.266Z,5.75
2022-10-10T22:26:01.346Z,6.10
2022-10-10T22:28:28.321Z,6.05
2022-10-10T22:30:55.065Z,6.07
2022-10-10T22:33:21.679Z,5.72
2022-10-10T22:35:48.265Z,6.88
2022-10-10T22:38:14.943Z,6.60
2022-10-10T22:40:41.566Z,6.00
2022-10-10T22:43:08.201Z,6.95
2022-10-10T22:45:34.860Z,5.78
2022-10-10T22:48:02.562Z,5.60
2022-10-10T22:50:30.184Z,6.43
2022-10-10T22:52:56.854Z,5.30
2022-10-10T22:55:23.623Z,6.13
2022-10-10T22:57:50.416Z,6.55
2022-10-10T23:00:17.999Z,6.43
2022-10-10T23:02:44.631Z,5.82
2022-10-10T23:05:11.296Z,6.30
2022-10-10T23:07:37.962Z,6.60
2022-10-10T23:10:05.032Z,6.05
2022-10-10T23:12:31.625Z,6.30
2022-10-10T23:14:58.398Z,6.38
2022-10-10T23:17:25.007Z,6.32
2022-10-10T23:19:51.636Z,5.85
2022-10-10T23:22:18.233Z,6.57
2022-10-10T23:24:44.879Z,6.07
2022-10-10T23:27:11.562Z,6.25
2022-10-10T23:29:38.403Z,6.20
2022-10-10T23:32:05.171Z,6.55
2022-10-10T23:34:31.805Z,6.78
2022-10-10T23:36:58.443Z,6.03
2022-10-10T23:39:25.120Z,6.32
2022-10-10T23:41:51.753Z,5.95
2022-10-10T23:44:18.392Z,6.53
2022-10-10T23:46:45.036Z,6.47
2022-10-10T23:49:11.699Z,6.07
2022-10-10T23:51:38.346Z,5.82
2022-10-10T23:54:05.096Z,6.15
2022-10-10T23:56:31.771Z,5.85
2022-10-10T23:58:58.412Z,5.97
